Flight Track Log - Related Links

Times and Time Zones

All times are in EDT time to prevent confusion due to time zone crossing. See the MAL7079 flight status page for this flight to view local times or setup timezone preferences in your user account.

Time Position Orientation Groundspeed Altitude Reporting Facility
EDT Latitude Longitude Course Direction KTS MPH feet Rate Location/Type
03:42AM 43.6790 -79.6570 227° Southwest 166 191 500  Level FlightAware ADS-B (CYYZ)
03:42AM 43.6712 -79.6687 228° Southwest 169 194 1,100 2,276 Climbing FlightAware ADS-B (CYYZ)
03:42AM 43.6643 -79.6795 230° Southwest 172 198 1,600 2,400 Climbing FlightAware ADS-B (EPLB / LUZ)
03:42AM 43.6635 -79.6802 230° Southwest 173 199 1,700 1,500 Climbing FlightAware ADS-B (CYYZ)
03:42AM 43.6550 -79.6933 228° Southwest 188 216 2,000 1,500 Climbing FlightAware ADS-B (CYYZ)
03:42AM 43.6545 -79.6942 227° Southwest 192 221 2,100 1,200 Climbing FlightAware ADS-B (EPLB / LUZ)
03:43AM 43.6452 -79.7082 227° Southwest 207 238 2,300 1,043 Climbing FlightAware ADS-B (CYYZ)
03:43AM 43.6394 -79.7160 227° Southwest 216 249 2,500 1,600 Climbing FlightAware ADS-B (EPLB / LUZ)
03:43AM 43.6346 -79.7233 227° Southwest 225 259 2,700 2,100 Climbing FlightAware ADS-B (CYYZ)
03:43AM 43.6324 -79.7264 226° Southwest 235 270 3,200 2,250 Climbing FlightAware ADS-B (EPLB / LUZ)
03:43AM 43.6232 -79.7394 227° Southwest 235 270 3,300 2,625 Climbing FlightAware ADS-B (CYYZ)
03:43AM 43.6125 -79.7548 227° Southwest 239 275 3,900 2,727 Climbing FlightAware ADS-B (CYYZ)
03:44AM 43.6063 -79.7636 226° Southwest 242 278 4,300 2,800 Climbing FlightAware ADS-B (CYKF)
03:44AM 43.6006 -79.7715 227° Southwest 246 283 4,600 2,500 Climbing FlightAware ADS-B (CYYZ)
03:44AM 43.5969 -79.7786 232° Southwest 246 283 4,800 2,400 Climbing FlightAware ADS-B (CYYZ)
03:44AM 43.5935 -79.7852 239° Southwest 244 281 5,000 2,400 Climbing FlightAware ADS-B (CYYZ)
03:44AM 43.5892 -79.7977 248° West 241 277 5,400 2,182 Climbing FlightAware ADS-B (CYYZ)
03:44AM 43.5886 -79.7992 250° West 241 277 5,400 2,400 Level FlightAware ADS-B (EPLB / LUZ)
03:44AM 43.5873 -79.8065 255° West 238 274 5,600 3,000 Climbing FlightAware ADS-B (CYYZ)
03:44AM 43.5864 -79.8140 262° West 234 269 5,900 3,000 Climbing FlightAware ADS-B (CYYZ)
03:44AM 43.5863 -79.8199 268° West 232 267 6,100 2,667 Climbing FlightAware ADS-B (CYYZ)
03:44AM 43.5866 -79.8272 274° West 230 265 6,300 2,400 Climbing FlightAware ADS-B (CYYZ)
03:44AM 43.5878 -79.8359 283° West 228 262 6,500 2,571 Climbing FlightAware ADS-B (CYYZ)
03:45AM 43.5866 -79.8124 285° West 229 264 6,600 3,000 Climbing FlightAware ADS-B
03:45AM 43.5891 -79.8415 288° West 228 262 6,700 2,000 Climbing FlightAware ADS-B (CYYZ)
03:45AM 43.5919 -79.8495 297° West 229 264 6,900 2,182 Climbing FlightAware ADS-B (CYYZ)
03:45AM 43.5942 -79.8546 303° West 230 265 7,100 2,400 Climbing FlightAware ADS-B (CYYZ)
03:45AM 43.5952 -79.8570 305° West 231 266 7,100 2,400 Level FlightAware ADS-B (EPLB / LUZ)
03:45AM 43.5979 -79.8616 311° West 231 266 7,300 2,400 Climbing FlightAware ADS-B (CYYZ)
03:45AM 43.6063 -79.8735 310° West 231 266 7,700 2,400 Climbing FlightAware ADS-B
03:45AM 43.6093 -79.8779 315° West 238 274 7,900 2,400 Climbing FlightAware ADS-B (CYYZ)
03:45AM 43.6101 -79.8788 315° West 239 275 7,900 2,400 Level FlightAware ADS-B (EPLB / LUZ)
03:45AM 43.6211 -79.8930 316° Northwest 242 278 8,500 2,667 Climbing FlightAware ADS-B (CYYZ)
03:45AM 43.6245 -79.8985 316° Northwest 244 281 8,700 2,625 Climbing FlightAware ADS-B (CZBA)
03:46AM 43.6338 -79.9105 316° Northwest 246 283 9,200 2,667 Climbing FlightAware ADS-B (CYYZ)
03:46AM 43.6303 -79.9062 316° Northwest 247 284 9,500 2,571 Climbing FlightAware ADS-B
03:46AM 43.6457 -79.9270 316° Northwest 249 287 9,800 1,600 Climbing FlightAware ADS-B (CYYZ)
03:46AM 43.6609 -79.9465 315° West 267 307 10,300 1,200 Climbing FlightAware ADS-B
03:46AM 43.6768 -79.9687 316° Northwest 283 326 10,500 1,256 Climbing FlightAware ADS-B (CYYZ)
03:47AM 43.7069 -80.0093 316° Northwest 313 360 11,200 1,273 Climbing FlightAware ADS-B (CYYZ)
03:47AM 43.7085 -80.0122 315° West 316 364 11,200 2,000 Level FlightAware ADS-B (EPLB / LUZ)
03:47AM 43.7379 -80.0518 316° Northwest 327 376 12,200 2,667 Climbing FlightAware ADS-B (CYYZ)
03:48AM 43.7449 -80.0621 315° West 327 376 12,800 3,097 Climbing FlightAware ADS-B (CYKF)
03:48AM 43.7709 -80.0975 315° West 326 375 13,800 2,625 Climbing FlightAware ADS-B (CYYZ)
03:48AM 43.7994 -80.1362 315° West 331 381 14,900 2,483 Climbing FlightAware ADS-B (EPLB / LUZ)
03:48AM 43.8032 -80.1422 315° West 330 380 15,000 2,903 Climbing FlightAware ADS-B (CYYZ)
03:49AM 43.8327 -80.1825 315° West 328 377 16,400 3,000 Climbing FlightAware ADS-B
03:49AM 43.8348 -80.1854 315° West 328 377 16,500 2,625 Climbing FlightAware ADS-B (CYYZ)
03:49AM 43.8673 -80.2317 315° West 326 375 17,800 2,647 Climbing FlightAware ADS-B (CYYZ)
03:49AM 43.8716 -80.2377 315° West 327 376 18,000 2,000 Climbing FlightAware ADS-B
03:50AM 43.8990 -80.2777 314° West 333 383 18,800 1,837 Climbing FlightAware ADS-B (CYYZ)
03:50AM 43.9235 -80.3118 314° West 338 389 19,500 1,800 Climbing FlightAware ADS-B (EPLB / LUZ)
03:50AM 43.9311 -80.3228 314° West 340 391 19,700 1,784 Climbing FlightAware ADS-B (CYYZ)
03:51AM 43.9644 -80.3706 314° West 348 400 20,600 1,818 Climbing FlightAware ADS-B (CYYZ)
03:51AM 43.9671 -80.3755 314° West 349 402 20,700 1,800 Climbing FlightAware ADS-B (EPLB / LUZ)
03:51AM 43.9985 -80.4210 314° West 354 407 21,500 1,800 Climbing FlightAware ADS-B (CYYZ)
03:51AM 44.0023 -80.4259 314° West 355 409 21,600 2,000 Climbing FlightAware ADS-B (EPLB / LUZ)
03:52AM 44.0331 -80.4705 314° West 357 411 22,500 1,857 Climbing FlightAware ADS-B (CYYZ)
03:52AM 44.0353 -80.4739 314° West 360 414 22,900 1,600 Climbing FlightAware ADS-B (EPLB / LUZ)
03:52AM 44.0674 -80.5189 314° West 362 417 23,300 1,600 Climbing FlightAware ADS-B (CYYZ)
03:53AM 44.1026 -80.5700 314° West 368 423 24,100 1,525 Climbing FlightAware ADS-B (CYYZ)
03:53AM 44.1384 -80.6212 316° Northwest 375 432 24,800 1,429 Climbing FlightAware ADS-B (CYYZ)
03:54AM 44.1535 -80.6412 317° Northwest 379 436 25,100 1,548 Climbing FlightAware ADS-B (CYKF)
03:54AM 44.1777 -80.6730 318° Northwest 381 438 25,600 1,412 Climbing FlightAware ADS-B (CYYZ)
03:54AM 44.1920 -80.6914 317° Northwest 384 442 25,900 1,400 Climbing FlightAware ADS-B (EPLB / LUZ)
03:54AM 44.2171 -80.7234 318° Northwest 386 444 26,300 1,385 Climbing FlightAware ADS-B (CYYZ)
03:55AM 44.2488 -80.7643 317° Northwest 393 452 26,800 1,200 Climbing FlightAware ADS-B (EPLB / LUZ)
03:55AM 44.2564 -80.7730 318° Northwest 393 452 26,900 1,029 Climbing FlightAware ADS-B (CYYZ)
03:55AM 44.2960 -80.8252 318° Northwest 400 460 27,400 977 Climbing FlightAware ADS-B (CYYZ)
03:56AM 44.3075 -80.8394 317° Northwest 404 465 27,600 1,000 Climbing FlightAware ADS-B (CYKF)
03:56AM 44.3381 -80.8803 318° Northwest 406 467 27,900 1,024 Climbing FlightAware ADS-B (CYYZ)
03:56AM 44.3710 -80.9218 317° Northwest 412 474 28,300 1,161 Climbing FlightAware ADS-B (EPLB / LUZ)
03:56AM 44.3793 -80.9326 318° Northwest 411 473 28,500 1,167 Climbing FlightAware ADS-B (CYYZ)
03:57AM 44.4227 -80.9897 317° Northwest 418 481 29,000 1,067 Climbing FlightAware ADS-B (CYYZ)
03:57AM 44.4427 -81.0153 317° Northwest 421 484 29,300 1,000 Climbing FlightAware ADS-B (EPLB / LUZ)
03:57AM 44.4647 -81.0451 317° Northwest 421 484 29,500 1,077 Climbing FlightAware ADS-B (CYYZ)
03:58AM 44.4988 -81.0898 317° Northwest 422 486 30,000 1,400 Climbing FlightAware ADS-B (EPLB / LUZ)
03:58AM 44.5077 -81.1010 317° Northwest 422 486 30,200 1,714 Climbing FlightAware ADS-B (CYYZ)
03:58AM 44.5500 -81.1567 317° Northwest 418 481 31,000 1,571 Climbing FlightAware ADS-B (CYYZ)
03:59AM 44.5637 -81.1735 317° Northwest 416 479 31,300 1,200 Climbing FlightAware ADS-B (CYKF)
03:59AM 44.5924 -81.2121 317° Northwest 417 480 31,600 1,161 Climbing FlightAware ADS-B (CYYZ)
03:59AM 44.6010 -81.2232 317° Northwest 419 482 31,900 1,000 Climbing FlightAware ADS-B (EPLB / LUZ)
03:59AM 44.6344 -81.2660 317° Northwest 420 483 32,100 1,021 Climbing FlightAware ADS-B (CYYZ)
04:00AM 44.6776 -81.3243 317° Northwest 422 486 32,700 1,200 Climbing FlightAware ADS-B (CYYZ)
04:00AM 44.7203 -81.3807 317° Northwest 422 486 33,300 1,116 Climbing FlightAware ADS-B (CYYZ)
04:01AM 44.7374 -81.4032 317° Northwest 423 487 33,500 1,161 Climbing FlightAware ADS-B (CYKF)
04:01AM 44.7633 -81.4372 317° Northwest 422 486 33,900 1,277 Climbing FlightAware ADS-B (CYYZ)
04:01AM 44.8058 -81.4940 317° Northwest 425 489 34,500 1,105 Climbing FlightAware ADS-B (CYYZ)
04:02AM 44.8172 -81.5091 317° Northwest 426 490 34,600 1,000 Climbing FlightAware ADS-B (CYKF)
04:02AM 44.8479 -81.5493 317° Northwest 427 491 35,000 941 Climbing FlightAware ADS-B (CYYZ)
04:02AM 44.8924 -81.6088 317° Northwest 430 495 35,400 837 Climbing FlightAware ADS-B (CYYZ)
04:03AM 44.9095 -81.6320 316° Northwest 432 497 35,600 800 Climbing FlightAware ADS-B (CYKF)
04:03AM 44.9354 -81.6673 317° Northwest 435 501 35,800 407 Climbing FlightAware ADS-B (CYYZ)
04:04AM 44.9615 -81.7004 317° Northwest 437 503 36,000 240 Climbing FlightAware ADS-B (CYKF)
04:04AM 45.0068 -81.7613 317° Northwest 437 503 36,000  Level FlightAware ADS-B (CYYZ)
04:04AM 45.0526 -81.8241 317° Northwest 435 501 36,000  Level FlightAware ADS-B (CYYZ)
04:05AM 45.0814 -81.8632 316° Northwest 434 499 36,000  Level FlightAware ADS-B (CYKF)
04:05AM 45.0948 -81.8808 316° Northwest 434 499 36,000  Level FlightAware ADS-B (CYYZ)
04:05AM 45.1190 -81.9252 301° West 421 484 36,000  Level FlightAware ADS-B (CYYZ)
04:06AM 45.1480 -81.9995 300° West 420 483 36,000  Level FlightAware ADS-B (CYKF)
04:06AM 45.1626 -82.0350 302° West 421 484 36,000  Level FlightAware ADS-B (CYYZ)
04:06AM 45.1931 -82.1028 303° West 422 486 36,000  Level FlightAware ADS-B (CYYZ)
04:07AM 45.2266 -82.1747 304° West 424 488 36,000  Level FlightAware ADS-B (CYYZ)
04:07AM 45.2584 -82.2420 304° West 426 490 36,000  Level FlightAware ADS-B (CYYZ)
04:07AM 45.2683 -82.2630 304° West 426 490 36,000  Level FlightAware ADS-B (CYKF)
04:08AM 45.2915 -82.3144 303° West 426 490 36,000  Level FlightAware ADS-B (CYYZ)
04:09AM 45.3369 -82.4221 301° West 424 488 36,000  Level FlightAware ADS-B (CYYZ)
04:09AM 45.3666 -82.4941 301° West 423 487 36,000  Level FlightAware ADS-B (CYYZ)
04:10AM 45.3967 -82.5660 301° West 424 488 36,000  Level FlightAware ADS-B (CYYZ)
04:10AM 45.4270 -82.6379 301° West 424 488 36,000  Level FlightAware ADS-B (CYYZ)
04:11AM 45.4569 -82.7098 301° West 424 488 36,000  Level FlightAware ADS-B (CYYZ)
04:11AM 45.4865 -82.7794 301° West 423 487 36,000  Level FlightAware ADS-B (CYYZ)
04:12AM 45.5167 -82.8539 301° West 423 487 36,000  Level FlightAware ADS-B (CYYZ)
04:12AM 45.5463 -82.9258 301° West 423 487 36,000  Level FlightAware ADS-B (CYYZ)
04:13AM 45.5759 -82.9977 301° West 423 487 36,000  Level FlightAware ADS-B (CYYZ)
04:13AM 45.6050 -83.0672 301° West 423 487 36,000  Level FlightAware ADS-B (CYYZ)
04:13AM 45.6100 -83.0792 301° West 423 487 36,000  Level FlightAware ADS-B (CYYZ)
04:14AM 45.6500 -83.1833 301° West 420 483 36,000  Level Toronto Center
04:15AM 45.7000 -83.3333 296° West 420 483 36,000  Level Toronto Center
04:16AM 45.7667 -83.4833 303° West 420 483 36,000  Level Toronto Center
04:17AM 45.8333 -83.6333 303° West 420 483 36,000  Level Toronto Center
04:18AM 45.8667 -83.7833 288° West 420 483 36,000  Level Toronto Center
04:19AM 45.9333 -83.9167 306° West 420 483 36,000  Level Toronto Center
04:20AM 46.0000 -84.0500 306° West 420 483 36,000  Level Toronto Center
04:21AM 46.0667 -84.2000 303° West 420 483 36,000  Level Toronto Center
04:22AM 46.1000 -84.3500 288° West 410 472 36,000  Level Toronto Center
04:23AM 46.1667 -84.5000 303° West 410 472 36,000  Level Toronto Center
04:24AM 46.2167 -84.6500 296° West 410 472 36,000  Level Toronto Center
04:25AM 46.2667 -84.7667 302° West 410 472 36,000  Level Toronto Center
04:26AM 46.3333 -84.9167 303° West 400 460 36,000  Level Toronto Center
04:27AM 46.3833 -85.0667 296° West 410 472 36,000  Level Toronto Center
04:28AM 46.4314 -85.1578 307° West 407 468 36,000  Level Minneapolis Center
04:29AM 46.4856 -85.3000 299° West 407 468 36,000  Level Minneapolis Center
04:30AM 46.5389 -85.4433 298° West 406 467 36,000  Level Minneapolis Center
04:31AM 46.5922 -85.5850 299° West 405 466 36,000  Level Minneapolis Center
04:32AM 46.6458 -85.7258 299° West 405 466 36,000  Level Minneapolis Center
04:33AM 46.6981 -85.8694 298° West 405 466 36,000  Level Minneapolis Center
04:34AM 46.7514 -86.0114 299° West 404 465 36,000  Level Minneapolis Center
04:35AM 46.8031 -86.1528 298° West 403 464 36,000  Level Minneapolis Center
04:36AM 46.8550 -86.2958 298° West 402 463 36,000  Level Minneapolis Center
04:37AM 46.9075 -86.4367 299° West 401 461 36,000  Level Minneapolis Center
04:38AM 46.9581 -86.5800 297° West 401 461 36,000  Level Minneapolis Center
04:39AM 47.0089 -86.7214 298° West 398 458 36,000  Level Minneapolis Center
04:40AM 47.0592 -86.8625 298° West 397 457 36,000  Level Minneapolis Center
04:41AM 47.1106 -87.0047 298° West 396 456 36,000  Level Minneapolis Center
04:42AM 47.1528 -87.1519 293° West 395 455 36,000  Level Minneapolis Center
04:43AM 47.1864 -87.3036 288° West 395 455 36,000  Level Minneapolis Center
04:44AM 47.2167 -87.5167 282° West 390 449 36,000  Level Toronto Center
04:45AM 47.2550 -87.6050 303° West 393 452 36,000  Level Minneapolis Center
04:46AM 47.2914 -87.7706 288° West 392 451 36,000  Level Minneapolis Center
04:47AM 47.3256 -87.9211 289° West 391 450 36,000  Level Minneapolis Center
04:48AM 47.3597 -88.0733 288° West 391 450 36,000  Level Minneapolis Center
04:49AM 47.3928 -88.2261 288° West 391 450 36,000  Level Minneapolis Center
04:50AM 47.4269 -88.3789 288° West 391 450 36,000  Level Minneapolis Center
04:51AM 47.4592 -88.5289 288° West 391 450 36,000  Level Minneapolis Center
04:52AM 47.4922 -88.6825 288° West 391 450 36,000  Level Minneapolis Center
04:53AM 47.5244 -88.8328 288° West 391 450 36,000  Level Minneapolis Center
04:54AM 47.5578 -88.9850 288° West 390 449 36,000  Level Minneapolis Center
04:55AM 47.5906 -89.1383 288° West 390 449 36,000  Level Minneapolis Center
04:56AM 47.6211 -89.2911 287° West 390 449 36,000  Level Minneapolis Center
04:57AM 47.6533 -89.4450 287° West 390 449 36,000  Level Minneapolis Center
04:58AM 47.6847 -89.5975 287° West 390 449 36,000  Level Minneapolis Center
04:59AM 47.7167 -89.7514 287° West 390 449 36,000  Level Minneapolis Center
05:00AM 47.7483 -89.9064 287° West 391 450 36,000  Level Minneapolis Center
05:01AM 47.7794 -90.0608 287° West 391 450 36,000  Level Minneapolis Center
05:02AM 47.8114 -90.2150 287° West 391 450 36,000  Level Minneapolis Center
05:03AM 47.8436 -90.3783 286° West 390 449 36,000  Level Minneapolis Center
05:04AM 47.8739 -90.5336 286° West 391 450 36,000  Level Minneapolis Center
05:05AM 47.9044 -90.6861 287° West 390 449 36,000  Level Minneapolis Center
05:06AM 47.9358 -90.8408 287° West 390 449 36,000  Level Minneapolis Center
05:07AM 47.9650 -90.9958 286° West 390 449 36,000  Level Minneapolis Center
05:08AM 47.9944 -91.1506 286° West 390 449 36,000  Level Minneapolis Center
05:09AM 48.0244 -91.3067 286° West 390 449 36,000  Level Minneapolis Center
05:10AM 48.0531 -91.4617 285° West 390 449 36,000  Level Minneapolis Center
05:11AM 48.0839 -91.6161 287° West 390 449 36,000  Level Minneapolis Center
05:12AM 48.1117 -91.7731 285° West 390 449 36,000  Level Minneapolis Center
05:13AM 48.1464 -91.9606 286° West 391 450 36,000  Level Minneapolis Center
05:14AM 48.1747 -92.1175 285° West 391 450 36,000  Level Minneapolis Center
05:15AM 48.2028 -92.2742 285° West 391 450 36,000  Level Minneapolis Center
05:16AM 48.2308 -92.4303 285° West 391 450 36,000  Level Minneapolis Center
05:17AM 48.2589 -92.5883 285° West 391 450 36,000  Level Minneapolis Center
05:18AM 48.2864 -92.7444 285° West 391 450 36,000  Level Minneapolis Center
05:19AM 48.3142 -92.9011 285° West 391 450 36,000  Level Minneapolis Center
05:20AM 48.3414 -93.0592 285° West 391 450 36,000  Level Minneapolis Center
05:21AM 48.3683 -93.2186 284° West 392 451 36,000  Level Minneapolis Center
05:22AM 48.3947 -93.3786 284° West 393 452 36,000  Level Minneapolis Center
05:23AM 48.4217 -93.5378 284° West 393 452 36,000  Level Minneapolis Center
05:24AM 48.4483 -93.6983 284° West 394 453 36,000  Level Minneapolis Center
05:25AM 48.4753 -93.8575 284° West 394 453 36,000  Level Minneapolis Center
05:26AM 48.5017 -94.0186 284° West 394 453 36,000  Level Minneapolis Center
05:32AM 48.6460 -94.9250 284° West 403 464 36,000  Level FlightAware ADS-B (SEQM / UIO)
05:32AM 48.6610 -95.0240 284° West 403 464 36,000  Level FlightAware ADS-B (SEQM / UIO)
05:33AM 48.6740 -95.1090 284° West 404 465 36,000  Level FlightAware ADS-B (SEQM / UIO)
05:33AM 48.6890 -95.2050 283° West 405 466 36,000  Level FlightAware ADS-B (SEQM / UIO)
05:34AM 48.7020 -95.2900 283° West 405 466 36,000  Level FlightAware ADS-B (SEQM / UIO)
05:34AM 48.7130 -95.3650 283° West 406 467 36,000  Level FlightAware ADS-B (SEQM / UIO)
05:35AM 48.7290 -95.4720 283° West 406 467 36,000  Level FlightAware ADS-B (SEQM / UIO)
05:35AM 48.7410 -95.5550 283° West 406 467 36,000  Level FlightAware ADS-B (SEQM / UIO)
05:36AM 48.7520 -95.6300 283° West 407 468 36,000  Level FlightAware ADS-B (SEQM / UIO)
05:36AM 48.7680 -95.7330 283° West 408 470 36,000  Level FlightAware ADS-B (SEQM / UIO)
05:37AM 48.7850 -95.8500 283° West 409 471 36,000  Level FlightAware ADS-B (SEQM / UIO)
05:38AM 48.7970 -95.9340 283° West 409 471 36,000  Level FlightAware ADS-B (SEQM / UIO)
05:38AM 48.8110 -96.0340 283° West 410 472 36,000  Level FlightAware ADS-B (SEQM / UIO)
05:39AM 48.8260 -96.1360 283° West 411 473 36,000  Level FlightAware ADS-B (SEQM / UIO)
05:39AM 48.8400 -96.2370 283° West 412 474 36,000  Level FlightAware ADS-B (SEQM / UIO)
05:40AM 48.8520 -96.3210 283° West 412 474 36,000  Level FlightAware ADS-B (SEQM / UIO)
05:40AM 48.8640 -96.4060 283° West 412 474 36,000  Level FlightAware ADS-B (SEQM / UIO)
05:41AM 48.8760 -96.4900 283° West 412 474 36,000  Level FlightAware ADS-B (SEQM / UIO)
05:41AM 48.8900 -96.5920 282° West 411 473 36,000 91 Level FlightAware ADS-B (SEQM / UIO)
05:42AM 48.9010 -96.6760 282° West 407 468 36,100 448 Climbing FlightAware ADS-B (SEQM / UIO)
05:43AM 48.9150 -96.7770 282° West 408 470 36,500 636 Climbing FlightAware ADS-B (SEQM / UIO)
05:43AM 48.9260 -96.8610 282° West 410 472 36,800 500 Climbing FlightAware ADS-B (SEQM / UIO)
05:44AM 48.9380 -96.9460 282° West 415 478 37,000 545 Climbing FlightAware ADS-B (SEQM / UIO)
05:44AM 48.9520 -97.0490 282° West 417 480 37,400 750 Climbing FlightAware ADS-B (SEQM / UIO)
05:45AM 48.9660 -97.1520 282° West 415 478 37,900 537 Climbing FlightAware ADS-B (SEQM / UIO)
05:45AM 48.9770 -97.2370 282° West 415 478 38,000 92 Climbing FlightAware ADS-B (SEQM / UIO)
05:46AM 48.9900 -97.3390 282° West 412 474 38,000  Level FlightAware ADS-B (SEQM / UIO)
05:46AM 49.0040 -97.4410 282° West 410 472 38,000  Level FlightAware ADS-B (SEQM / UIO)
05:47AM 49.0150 -97.5260 282° West 410 472 38,000  Level FlightAware ADS-B (SEQM / UIO)
05:48AM 49.0260 -97.6110 282° West 411 473 38,000  Level FlightAware ADS-B (SEQM / UIO)
05:48AM 49.0380 -97.7100 282° West 411 473 38,000  Level FlightAware ADS-B (SEQM / UIO)
05:49AM 49.0520 -97.8150 281° West 411 473 38,000  Level FlightAware ADS-B (SEQM / UIO)
05:49AM 49.0650 -97.9170 281° West 411 473 38,000  Level FlightAware ADS-B (SEQM / UIO)
05:50AM 49.0800 -98.0390 281° West 411 473 38,000  Level FlightAware ADS-B (SEQM / UIO)
05:51AM 49.0930 -98.1440 281° West 412 474 38,000  Level FlightAware ADS-B (SEQM / UIO)
05:51AM 49.1030 -98.2240 281° West 412 474 38,000  Level FlightAware ADS-B (SEQM / UIO)
05:52AM 49.1000 -98.4000 281° West 410 472 38,000  Level Winnipeg Center
05:53AM 49.1333 -98.5833 286° West 410 472 38,000  Level Winnipeg Center
05:54AM 49.1500 -98.7333 280° West 410 472 38,000  Level Winnipeg Center
05:55AM 49.1667 -98.9167 278° West 410 472 38,000  Level Winnipeg Center
05:56AM 49.1833 -99.0833 279° West 410 472 38,000  Level Winnipeg Center
05:57AM 49.2000 -99.2667 278° West 410 472 38,000  Level Winnipeg Center
05:58AM 49.2333 -99.4333 287° West 410 472 38,000  Level Winnipeg Center
05:59AM 49.2500 -99.6000 279° West 420 483 38,000  Level Winnipeg Center
06:00AM 49.2667 -99.7833 278° West 420 483 38,000  Level Winnipeg Center
06:01AM 49.2833 -99.9667 278° West 420 483 38,000  Level Winnipeg Center
06:02AM 49.3000 -100.1167 280° West 420 483 38,000  Level Winnipeg Center
06:03AM 49.3333 -100.3000 286° West 420 483 38,000  Level Winnipeg Center
06:04AM 49.3333 -100.4833 270° West 420 483 38,000  Level Winnipeg Center
06:05AM 49.3500 -100.6667 278° West 420 483 38,000  Level Winnipeg Center
06:06AM 49.3833 -100.8500 286° West 420 483 38,000  Level Winnipeg Center
06:07AM 49.3833 -101.0333 270° West 420 483 38,000  Level Winnipeg Center
06:08AM 49.4167 -101.2167 286° West 420 483 38,000  Level Winnipeg Center
06:09AM 49.4333 -101.3667 280° West 420 483 38,000  Level Winnipeg Center
06:10AM 49.4500 -101.5500 278° West 420 483 38,000  Level Winnipeg Center
06:11AM 49.4667 -101.7333 278° West 420 483 38,000  Level Winnipeg Center
06:12AM 49.4667 -101.9167 270° West 420 483 38,000  Level Winnipeg Center
06:13AM 49.5000 -102.1000 286° West 420 483 38,000  Level Winnipeg Center
06:14AM 49.5000 -102.2667 270° West 430 495 38,000  Level Winnipeg Center
06:15AM 49.5333 -102.4667 284° West 430 495 38,000  Level Winnipeg Center
06:16AM 49.5333 -102.6333 270° West 430 495 38,000  Level Winnipeg Center
06:17AM 49.5667 -102.8167 286° West 430 495 38,000  Level Winnipeg Center
06:18AM 49.5667 -103.0000 270° West 430 495 38,000  Level Winnipeg Center
06:19AM 49.5833 -103.1833 278° West 430 495 38,000  Level Winnipeg Center
06:20AM 49.6000 -103.3667 278° West 430 495 38,000  Level Winnipeg Center
06:21AM 49.6000 -103.5500 270° West 430 495 38,000  Level Winnipeg Center
06:22AM 49.6333 -103.7333 286° West 430 495 38,000  Level Winnipeg Center
06:23AM 49.6333 -103.9167 270° West 430 495 38,000  Level Winnipeg Center
06:24AM 49.6333 -104.0833 270° West 430 495 38,000  Level Winnipeg Center
06:25AM 49.6667 -104.2833 285° West 430 495 38,000  Level Winnipeg Center
06:26AM 49.6667 -104.4500 270° West 430 495 38,000  Level Winnipeg Center
06:27AM 49.6833 -104.6500 277° West 430 495 38,000  Level Winnipeg Center
06:28AM 49.6833 -104.8333 270° West 430 495 38,000  Level Winnipeg Center
06:29AM 49.7167 -105.0000 287° West 430 495 38,000  Level Winnipeg Center
06:30AM 49.7167 -105.2000 270° West 430 495 38,000  Level Winnipeg Center
06:31AM 49.7333 -105.3667 279° West 430 495 38,000  Level Winnipeg Center
06:32AM 49.7333 -105.5667 270° West 430 495 38,000  Level Winnipeg Center
06:33AM 49.7500 -105.7333 279° West 430 495 38,000  Level Winnipeg Center
06:34AM 49.7667 -105.9167 278° West 430 495 38,000  Level Winnipeg Center
06:35AM 49.7500 -106.0333 258° West 430 495 38,000  Level Edmonton Center
06:36AM 49.7667 -106.2167 278° West 420 483 38,000  Level Edmonton Center
06:37AM 49.7833 -106.4000 278° West 420 483 38,000  Level Edmonton Center
06:38AM 49.7833 -106.5833 270° West 420 483 38,000  Level Edmonton Center
06:39AM 49.7833 -106.7667 270° West 420 483 38,000  Level Edmonton Center
06:40AM 49.8000 -106.9500 278° West 420 483 38,000  Level Edmonton Center
06:41AM 49.8167 -107.1333 278° West 430 495 38,000  Level Edmonton Center
06:42AM 49.8167 -107.3167 270° West 430 495 38,000  Level Edmonton Center
06:43AM 49.8333 -107.5000 278° West 420 483 38,000  Level Edmonton Center
06:44AM 49.8333 -107.6833 270° West 430 495 38,000  Level Edmonton Center
06:45AM 49.8333 -107.8667 270° West 430 495 38,000  Level Edmonton Center
06:46AM 49.8500 -108.0667 277° West 430 495 38,000  Level Edmonton Center
06:47AM 49.8500 -108.2500 270° West 430 495 38,000  Level Edmonton Center
06:48AM 49.8667 -108.4333 278° West 430 495 38,000  Level Edmonton Center
06:49AM 49.8667 -108.6167 270° West 440 506 38,000  Level Edmonton Center
06:50AM 49.8667 -108.8000 270° West 430 495 38,000  Level Edmonton Center
06:51AM 49.8833 -109.0167 277° West 430 495 38,000  Level Edmonton Center
06:52AM 49.8667 -109.2000 262° West 430 495 38,000  Level Edmonton Center
06:53AM 49.8833 -109.3833 278° West 430 495 38,000  Level Edmonton Center
06:54AM 49.9000 -109.5667 278° West 440 506 38,000  Level Edmonton Center
06:55AM 49.8833 -109.7500 262° West 430 495 38,000  Level Edmonton Center
06:56AM 49.9000 -109.9667 277° West 430 495 38,000  Level Edmonton Center
06:57AM 49.9000 -110.1500 270° West 430 495 38,000  Level Edmonton Center
06:58AM 49.9167 -110.3333 278° West 430 495 38,000  Level Edmonton Center
06:59AM 49.9000 -110.5167 262° West 430 495 38,000  Level Edmonton Center
07:00AM 49.9000 -110.7000 270° West 430 495 38,000  Level Edmonton Center
07:01AM 49.9167 -110.9000 277° West 430 495 38,000  Level Edmonton Center
07:02AM 49.9167 -111.0833 270° West 430 495 38,000  Level Edmonton Center
07:03AM 49.9167 -111.2667 270° West 430 495 38,000  Level Edmonton Center
07:04AM 49.9167 -111.4500 270° West 420 483 38,000  Level Edmonton Center
07:05AM 49.9167 -111.6500 270° West 420 483 38,000  Level Edmonton Center
07:06AM 49.9167 -111.8167 270° West 420 483 38,000  Level Edmonton Center
07:07AM 49.9167 -112.0167 270° West 420 483 38,000  Level Edmonton Center
07:08AM 49.9167 -112.2000 270° West 420 483 38,000  Level Edmonton Center
07:09AM 49.9167 -112.3833 270° West 420 483 38,000  Level Edmonton Center
07:10AM 49.9167 -112.5667 270° West 430 495 38,000  Level Edmonton Center
07:11AM 49.9167 -112.7500 270° West 430 495 38,000  Level Edmonton Center
07:12AM 49.9167 -112.9333 270° West 430 495 38,000  Level Edmonton Center
07:13AM 49.9167 -113.1167 270° West 430 495 38,000  Level Edmonton Center
07:14AM 49.9000 -113.3000 262° West 430 495 38,000  Level Edmonton Center
07:15AM 49.9000 -113.5000 270° West 430 495 38,000  Level Edmonton Center
07:16AM 49.9167 -113.6833 278° West 430 495 38,000  Level Edmonton Center
07:17AM 49.9167 -113.8667 270° West 430 495 38,000  Level Edmonton Center
07:18AM 49.9000 -114.0500 262° West 430 495 38,000  Level Edmonton Center
07:19AM 49.9000 -114.2333 270° West 430 495 38,000  Level Edmonton Center
07:20AM 49.9000 -114.4167 270° West 430 495 38,000  Level Edmonton Center
07:21AM 49.8833 -114.6000 262° West 430 495 38,000  Level Edmonton Center
07:22AM 49.8833 -114.8167 270° West 430 495 38,000  Level Edmonton Center
07:23AM 49.8833 -115.0000 270° West 430 495 38,000  Level Edmonton Center
07:24AM 49.8833 -115.0500 270° West 430 495 38,000  Level Vancouver Center
07:25AM 49.8833 -115.2333 270° West 430 495 38,000  Level Vancouver Center
07:26AM 49.8833 -115.4167 270° West 430 495 38,000  Level Vancouver Center
07:27AM 49.8667 -115.6333 263° West 430 495 38,000  Level Vancouver Center
07:28AM 49.8667 -115.8167 270° West 430 495 38,000  Level Vancouver Center
07:29AM 49.8500 -116.0000 262° West 430 495 38,000  Level Vancouver Center
07:30AM 49.8500 -116.1833 270° West 430 495 38,000  Level Vancouver Center
07:31AM 49.8333 -116.3667 262° West 430 495 38,000  Level Vancouver Center
07:32AM 49.8333 -116.5500 270° West 430 495 38,000  Level Vancouver Center
07:33AM 49.8167 -116.7333 262° West 420 483 38,000  Level Vancouver Center
07:34AM 49.8167 -116.9167 270° West 430 495 38,000  Level Vancouver Center
07:35AM 49.8000 -117.1000 262° West 430 495 38,000  Level Vancouver Center
07:36AM 49.7833 -117.2833 262° West 430 495 38,000  Level Vancouver Center
07:37AM 49.7833 -117.4667 270° West 430 495 38,000  Level Vancouver Center
07:38AM 49.7667 -117.6500 262° West 430 495 38,000  Level Vancouver Center
07:39AM 49.7500 -117.8333 262° West 420 483 38,000  Level Vancouver Center
07:40AM 49.7500 -118.0167 270° West 420 483 38,000  Level Vancouver Center
07:41AM 49.7333 -118.1833 261° West 420 483 38,000  Level Vancouver Center
07:42AM 49.7333 -118.3500 270° West 420 483 38,000  Level Vancouver Center
07:43AM 49.7000 -118.5500 256° West 420 483 38,000  Level Vancouver Center
07:44AM 49.7000 -118.7167 270° West 430 495 38,000  Level Vancouver Center
07:45AM 49.6833 -118.9167 263° West 420 483 38,000  Level Vancouver Center
07:46AM 49.6667 -119.0833 261° West 420 483 38,000  Level Vancouver Center
07:47AM 49.6500 -119.2667 262° West 420 483 38,000  Level Vancouver Center
07:48AM 49.6333 -119.4333 261° West 420 483 38,000  Level Vancouver Center
07:53AM 49.5708 -120.5215 262° West 417 480 38,000 -90 Level FlightAware ADS-B (CYVR)
07:54AM 49.5597 -120.6493 262° West 410 472 37,400 -1,099 Descending FlightAware ADS-B (CYVR)
07:55AM 49.5525 -120.7325 262° West 407 468 36,700 -1,900 Descending FlightAware ADS-B (CYVR)
07:55AM 49.5450 -120.8184 262° West 406 467 35,500 -2,348 Descending FlightAware ADS-B (CYVR)
07:56AM 49.5349 -120.9315 262° West 396 456 34,000 -2,486 Descending FlightAware ADS-B (CYVR)
07:56AM 49.5274 -121.0162 262° West 385 443 32,600 -2,535 Descending FlightAware ADS-B (CYVR)
07:57AM 49.5176 -121.1207 262° West 377 434 31,000 -2,314 Descending FlightAware ADS-B (CYVR)
07:58AM 49.5102 -121.2020 262° West 370 426 29,900 -2,087 Descending FlightAware ADS-B (CYVR)
07:58AM 49.5010 -121.3018 262° West 360 414 28,600 -2,057 Descending FlightAware ADS-B (CYVR)
07:59AM 49.4938 -121.3766 262° West 353 406 27,500 -2,066 Descending FlightAware ADS-B (CYVR)
07:59AM 49.4868 -121.4527 262° West 347 399 26,500 -1,967 Descending FlightAware ADS-B (CYVR)
08:00AM 49.4798 -121.5266 262° West 354 407 25,500 -2,066 Descending FlightAware ADS-B (CYVR)
08:00AM 49.4723 -121.6048 262° West 363 418 24,400 -2,200 Descending FlightAware ADS-B (CYVR)
08:01AM 49.4652 -121.6784 262° West 362 417 23,300 -2,200 Descending FlightAware ADS-B (CYVR)
08:01AM 49.4577 -121.7545 262° West 360 414 22,200 -2,419 Descending FlightAware ADS-B (CYVR)
08:02AM 49.4487 -121.8477 262° West 359 413 20,800 -2,381 Descending FlightAware ADS-B (FAKM / KIM)
08:02AM 49.4415 -121.9206 262° West 357 411 19,700 -2,164 Descending FlightAware ADS-B (FAKM / KIM)
08:03AM 49.4336 -122.0006 261° West 355 409 18,600 -2,149 Descending FlightAware ADS-B (FAKM / KIM)
08:03AM 49.4256 -122.0802 261° West 355 409 17,300 -2,149 Descending FlightAware ADS-B (CYVR)
08:04AM 49.4179 -122.1572 261° West 352 405 16,200 -2,229 Descending FlightAware ADS-B (CYVR)
08:05AM 49.4079 -122.2554 261° West 348 400 14,700 -2,057 Descending FlightAware ADS-B (CYVR)
08:05AM 49.4005 -122.3278 261° West 340 391 13,800 -1,800 Descending FlightAware ADS-B (CYVR)
08:06AM 49.3934 -122.3960 261° West 334 384 12,900 -1,800 Descending FlightAware ADS-B (CYVR)
08:06AM 49.3861 -122.4678 261° West 327 376 12,000 -1,905 Descending FlightAware ADS-B (CYVR)
08:07AM 49.3780 -122.5448 261° West 321 369 10,900 -1,406 Descending FlightAware ADS-B (FAKM / KIM)
08:07AM 49.3702 -122.6196 261° West 304 350 10,500 -545 Descending FlightAware ADS-B (FAKM / KIM)
08:08AM 49.3635 -122.6830 261° West 284 327 10,300 -455 Descending FlightAware ADS-B (CYVR)
08:08AM 49.3575 -122.7405 261° West 266 306 10,000 -588 Descending FlightAware ADS-B (CYVR)
08:09AM 49.3535 -122.7769 261° West 256 295 9,800 -769 Descending FlightAware ADS-B (CYVR)
08:09AM 49.3498 -122.8127 261° West 255 293 9,500 -1,077 Descending FlightAware ADS-B (CYVR)
08:09AM 49.3460 -122.8482 261° West 253 291 9,100 -1,024 Descending FlightAware ADS-B (CYVR)
08:10AM 49.3420 -122.8853 261° West 252 290 8,800 -1,024 Descending FlightAware ADS-B (CYVR)
08:10AM 49.3382 -122.9207 261° West 250 288 8,400 -1,077 Descending FlightAware ADS-B (CYVR)
08:10AM 49.3345 -122.9538 261° West 249 287 8,100 -750 Descending FlightAware ADS-B (CYVR)
08:11AM 49.3307 -122.9886 261° West 248 285 7,900 -293 Descending FlightAware ADS-B (CYVR)
08:11AM 49.3271 -123.0233 261° West 247 284 7,900  Level FlightAware ADS-B (CYVR)
08:11AM 49.3231 -123.0594 261° West 247 284 7,900  Level FlightAware ADS-B (CYVR)
08:12AM 49.3195 -123.0924 261° West 247 284 7,900  Level FlightAware ADS-B (CYVR)
08:12AM 49.3157 -123.1270 261° West 247 284 7,900  Level FlightAware ADS-B (CYVR)
08:12AM 49.3117 -123.1634 261° West 248 285 7,900  Level FlightAware ADS-B (CYVR)
08:13AM 49.3080 -123.1965 261° West 248 285 7,900  Level FlightAware ADS-B (CYVR)
08:13AM 49.3042 -123.2303 261° West 238 274 7,900 -585 Level FlightAware ADS-B (CYVR)
08:13AM 49.3005 -123.2646 261° West 232 267 7,500 -1,610 Descending FlightAware ADS-B (CYVR)
08:14AM 49.2968 -123.2972 260° West 232 267 6,800 -2,143 Descending FlightAware ADS-B (CYVR)
08:14AM 49.2947 -123.3182 263° West 230 265 6,500 -1,895 Descending FlightAware ADS-B (FAKM / KIM)
08:14AM 49.2943 -123.3344 271° West 230 265 6,200 -1,714 Descending FlightAware ADS-B (FAKM / KIM)
08:14AM 49.2952 -123.3474 278° West 229 264 5,900 -1,548 Descending FlightAware ADS-B (FAKM / KIM)
08:14AM 49.2985 -123.3777 281° West 229 264 5,400 -1,862 Descending FlightAware ADS-B (CYVR)
08:14AM 49.3008 -123.3969 277° West 227 261 5,000 -2,250 Descending FlightAware ADS-B (FAKM / KIM)
08:15AM 49.3017 -123.4224 271° West 226 260 4,500 -1,636 Descending FlightAware ADS-B (FAKM / KIM)
08:15AM 49.3018 -123.4418 271° West 227 261 4,100 -1,784 Descending FlightAware ADS-B (CYVR)
08:15AM 49.3019 -123.4744 270° West 232 267 3,400 -2,500 Descending FlightAware ADS-B (CYVR)
08:15AM 49.3019 -123.4826 261° West 234 269 3,100 -2,308 Descending FlightAware ADS-B (FAKM / KIM)
08:16AM 49.2990 -123.5035 249° West 231 266 2,900 -1,500 Descending FlightAware ADS-B (FAKM / KIM)
08:16AM 49.2922 -123.5178 229° Southwest 223 257 2,600 -1,059 Descending FlightAware ADS-B (FAKM / KIM)
08:16AM 49.2937 -123.5156 222° Southwest 220 253 2,600 -667 Level FlightAware ADS-B (CYVR)
08:16AM 49.2842 -123.5253 204° Southwest 212 244 2,500 -1,385 Descending FlightAware ADS-B (FAKM / KIM)
08:16AM 49.2753 -123.5283 183° South 203 234 2,300 -923 Descending FlightAware ADS-B (FAKM / KIM)
08:16AM 49.2649 -123.5241 154° Southeast 192 221 2,100 -667 Descending FlightAware ADS-B (CYVR)
08:17AM 49.2579 -123.5155 138° Southeast 188 216 2,000 -571 Descending FlightAware ADS-B (CYVR)
08:17AM 49.2530 -123.5055 127° Southeast 181 208 1,900 -300 Descending FlightAware ADS-B (CYVR)
08:17AM 49.2478 -123.4944 126° Southeast 175 201 1,900  Level FlightAware ADS-B (CYVR)
08:17AM 49.2430 -123.4845 126° Southeast 170 196 1,900  Level FlightAware ADS-B (CYVR)
08:17AM 49.2343 -123.4666 127° Southeast 165 190 1,900  Level FlightAware ADS-B (CYVR)
08:18AM 49.2247 -123.4480 127° Southeast 165 190 1,900  Level FlightAware ADS-B (CYVR)
08:18AM 49.2162 -123.4298 122° Southeast 167 192 1,900  Level FlightAware ADS-B (CYVR)
08:18AM 49.2132 -123.4169 106° East 163 188 1,900  Level FlightAware ADS-B (CYVR)
08:19AM 49.2112 -123.3963 97° East 165 190 1,900  Level FlightAware ADS-B (CYVR)
08:19AM 49.2098 -123.3825 100° East 161 185 1,900  Level FlightAware ADS-B (CYVR)
08:19AM 49.2066 -123.3541 100° East 152 175 1,900 -476 Level FlightAware ADS-B (CYVR)
08:20AM 49.2021 -123.3146 100° East 139 160 1,400 -750 Descending FlightAware ADS-B (CYVR)
08:20AM 49.2004 -123.2996 100° East 122 140 1,200 -732 Descending FlightAware ADS-B (CYVR)
08:21AM 49.1979 -123.2774 100° East 115 132 900 -558 Descending FlightAware ADS-B (CYVR)
08:21AM 49.1964 -123.2634 99° East 111 128 800 -615 Descending FlightAware ADS-B (CYVR)
08:21AM 49.1947 -123.2493 99° East 112 129 500 -615 Descending FlightAware ADS-B (CYVR)
08:21AM 49.1932 -123.2358 99° East 117 135 400 -353 Descending FlightAware ADS-B (CYVR)
08:22AM 49.1896 -123.2036 100° East 119 137 -686 Descending FlightAware ADS-B (CYVR)

Login

Don't have an account? Register now (free) for customized features, flight alerts, and more!